.
WxDataArchive / Data Records for 2011-04-06
2011-04-05 April 2011 2011-04-07

Data Records for Wednesday, 06 April 2011

Time	Temp	Chill	HIndex	Humid	Dewpt	 Wind 	HiWind	WindDir	Rain 	Barom 
-----	----	-----	------	-----	-----	------	------	-------	-----	----- 
00:00	38.2	38.2	38.2	60	25.6	0	0	---	0.00	29.882 
00:05	38.2	38.2	38.2	60	25.6	0	0	---	0.00	29.882 
00:10	38.0	38.0	38.0	61	25.8	0	0	---	0.00	29.882 
00:15	37.8	37.8	37.8	62	26.0	0	0	---	0.00	29.881 
00:20	37.6	37.6	37.6	62	25.8	0	0	---	0.00	29.881 
00:25	37.3	37.3	37.3	63	25.9	0	0	---	0.00	29.881 
00:30	37.0	37.0	37.0	64	26.0	0	0	---	0.00	29.883 
00:35	37.0	37.0	37.0	65	26.3	0	0	---	0.00	29.883 
00:40	36.9	36.9	36.9	65	26.3	0	0	---	0.00	29.883 
00:45	36.9	36.9	36.9	66	26.6	0	0	---	0.00	29.879 
00:50	37.0	37.0	37.0	67	27.1	0	0	---	0.00	29.879 
00:55	37.3	37.3	37.3	67	27.4	0	2	270	0.00	29.879 
01:00	37.8	37.8	37.8	67	27.8	0	0	---	0.00	29.869 
01:05	37.9	37.9	37.9	67	27.9	0	0	---	0.00	29.869 
01:10	38.0	38.0	38.0	68	28.4	0	0	---	0.00	29.869 
01:15	38.0	38.0	38.0	68	28.4	0	1	270	0.00	29.867 
01:20	38.2	38.2	38.2	69	28.9	0	1	270	0.00	29.867 
01:25	38.5	38.5	38.5	69	29.2	0	2	270	0.00	29.867 
01:30	38.8	38.8	38.8	69	29.5	0	3	248	0.00	29.865 
01:35	39.1	39.1	39.1	69	29.8	0	2	248	0.00	29.865 
01:40	39.3	39.3	39.3	69	30.0	0	2	248	0.00	29.865 
01:45	39.6	39.6	39.6	68	29.9	0	2	248	0.00	29.862 
01:50	39.8	39.8	39.8	68	30.1	1	4	248	0.00	29.862 
01:55	40.1	40.1	40.1	67	30.0	1	4	248	0.00	29.862 
02:00	40.2	40.2	40.2	67	30.1	0	4	248	0.00	29.861 
02:05	40.2	40.2	40.2	67	30.1	1	4	248	0.00	29.861 
02:10	40.3	40.3	40.3	66	29.9	1	4	248	0.00	29.861 
02:15	40.5	40.5	40.5	66	30.0	1	3	248	0.00	29.855 
02:20	40.5	40.5	40.5	66	30.0	0	3	248	0.00	29.855 
02:25	40.6	40.6	40.6	66	30.1	1	4	270	0.00	29.855 
02:30	40.6	40.6	40.6	66	30.1	0	1	270	0.00	29.845 
02:35	40.8	40.8	40.8	66	30.3	1	4	270	0.00	29.845 
02:40	40.9	40.9	40.9	65	30.1	0	3	248	0.00	29.845 
02:45	40.9	40.9	40.9	65	30.1	1	4	248	0.00	29.842 
02:50	41.1	41.1	41.1	65	30.2	0	3	248	0.00	29.842 
02:55	41.1	41.1	41.1	65	30.2	0	3	270	0.00	29.842 
03:00	41.1	41.1	41.1	64	29.9	0	3	270	0.00	29.831 
03:05	41.1	41.1	41.1	64	29.9	1	4	270	0.00	29.831 
03:10	40.9	40.9	40.9	64	29.7	0	2	248	0.00	29.831 
03:15	40.9	40.9	40.9	64	29.7	1	3	315	0.00	29.822 
03:20	40.9	40.9	40.9	64	29.7	0	2	315	0.00	29.822 
03:25	41.1	41.1	41.1	64	29.9	0	2	315	0.00	29.822 
03:30	41.2	41.2	41.2	63	29.6	1	5	68	0.00	29.813 
03:35	41.2	41.2	41.2	63	29.6	1	3	68	0.00	29.813 
03:40	41.2	41.2	41.2	63	29.6	1	5	248	0.00	29.813 
03:45	41.2	41.2	41.2	63	29.6	1	5	248	0.00	29.806 
03:50	41.5	41.5	41.5	62	29.5	1	6	248	0.00	29.806 
03:55	41.6	41.6	41.6	62	29.6	1	5	248	0.00	29.806 
04:00	41.8	41.8	41.8	61	29.4	2	9	225	0.00	29.807 
04:05	41.9	41.9	41.9	60	29.0	1	4	270	0.00	29.807 
04:10	42.1	42.1	42.1	60	29.2	2	5	225	0.00	29.807 
04:15	42.3	42.3	42.3	59	29.0	2	5	248	0.00	29.803 
04:20	42.5	42.5	42.5	59	29.2	2	5	248	0.00	29.803 
04:25	42.6	42.6	42.6	58	28.9	2	5	248	0.00	29.803 
04:30	42.8	42.8	42.8	58	29.1	2	5	248	0.00	29.800 
04:35	42.8	42.8	42.8	58	29.1	1	5	248	0.00	29.800 
04:40	42.8	42.8	42.8	58	29.1	1	3	248	0.00	29.800 
04:45	42.8	42.8	42.8	57	28.6	1	3	248	0.00	29.804 
04:50	43.1	43.1	43.1	57	28.9	2	6	248	0.00	29.804 
04:55	43.3	43.3	43.3	56	28.7	1	4	248	0.00	29.804 
05:00	43.6	43.6	43.6	55	28.5	1	5	292	0.00	29.800 
05:05	43.9	43.9	43.9	55	28.8	1	4	225	0.00	29.800 
05:10	43.9	43.9	43.9	54	28.3	1	3	90	0.00	29.800 
05:15	44.1	44.1	44.1	54	28.5	1	4	270	0.00	29.795 
05:20	44.2	44.2	44.2	54	28.6	1	5	270	0.00	29.795 
05:25	44.3	44.3	44.3	53	28.3	2	6	248	0.00	29.795 
05:30	44.3	44.3	44.3	54	28.7	0	3	248	0.00	29.794 
05:35	44.2	44.2	44.2	54	28.6	0	3	248	0.00	29.794 
05:40	44.1	44.1	44.1	54	28.5	1	4	248	0.00	29.794 
05:45	44.1	44.1	44.1	54	28.5	0	2	248	0.00	29.793 
05:50	44.1	44.1	44.1	55	29.0	0	2	248	0.00	29.793 
05:55	44.1	44.1	44.1	55	29.0	1	3	248	0.00	29.793 
06:00	44.1	44.1	44.1	55	29.0	1	6	225	0.00	29.795 
06:05	44.2	44.2	44.2	54	28.6	2	5	248	0.00	29.795 
06:10	44.3	44.3	44.3	54	28.7	1	4	248	0.00	29.795 
06:15	44.3	44.3	44.3	54	28.7	1	4	248	0.00	29.793 
06:20	44.5	44.5	44.5	54	28.9	1	6	248	0.00	29.793 
06:25	44.6	44.6	44.6	54	29.0	1	4	248	0.00	29.793 
06:30	44.8	44.8	44.8	54	29.2	1	5	248	0.00	29.792 
06:35	44.9	44.9	44.9	53	28.8	2	7	248	0.00	29.792 
06:40	45.1	45.1	45.1	53	29.0	2	7	225	0.00	29.792 
06:45	45.1	45.1	45.1	53	29.0	3	9	248	0.00	29.794 
06:50	45.2	45.2	45.2	53	29.1	2	6	225	0.00	29.794 
06:55	45.2	45.2	45.2	53	29.1	1	6	248	0.00	29.794 
07:00	45.1	45.1	45.1	53	29.0	2	4	248	0.00	29.794 
07:05	45.1	45.1	45.1	53	29.0	1	4	248	0.00	29.794 
07:10	45.1	45.1	45.1	53	29.0	2	6	248	0.00	29.794 
07:15	45.1	45.1	45.1	54	29.5	2	6	248	0.00	29.797 
07:20	45.2	45.2	45.2	53	29.1	3	11	248	0.00	29.797 
07:25	45.2	45.2	45.2	54	29.6	3	10	248	0.00	29.797 
07:30	45.2	45.2	45.2	54	29.6	3	9	248	0.00	29.808 
07:35	45.2	45.2	45.2	54	29.6	2	7	248	0.00	29.808 
07:40	45.4	45.4	45.4	54	29.7	3	9	248	0.00	29.808 
07:45	45.4	45.4	45.4	54	29.7	3	7	248	0.00	29.804 
07:50	45.4	45.4	45.4	54	29.7	2	7	248	0.00	29.804 
07:55	45.4	45.4	45.4	54	29.7	3	9	248	0.00	29.804 
08:00	45.4	45.4	45.4	54	29.7	1	4	248	0.00	29.812 
08:05	45.4	45.4	45.4	55	30.2	1	4	248	0.00	29.812 
08:10	45.2	45.2	45.2	55	30.0	1	3	248	0.00	29.812 
08:15	45.2	45.2	45.2	55	30.0	1	3	248	0.00	29.815 
08:20	45.4	45.4	45.4	55	30.2	1	4	248	0.00	29.815 
08:25	45.5	45.5	45.5	55	30.3	2	7	248	0.00	29.815 
08:30	45.7	45.7	45.7	55	30.5	2	4	248	0.00	29.815 
08:35	45.8	45.8	45.8	55	30.6	0	3	248	0.00	29.815 
08:40	45.8	45.8	45.8	56	31.0	0	1	248	0.00	29.815 
08:45	45.8	45.8	45.8	56	31.0	0	3	248	0.00	29.813 
08:50	45.8	45.8	45.8	56	31.0	1	5	248	0.00	29.813 
08:55	45.8	45.8	45.8	56	31.0	0	3	248	0.00	29.813 
09:00	46.0	46.0	46.0	56	31.2	0	3	248	0.00	29.817 
09:05	46.0	46.0	46.0	56	31.2	1	4	225	0.00	29.817 
09:10	46.0	46.0	46.0	56	31.2	1	4	248	0.00	29.817 
09:15	46.1	46.1	46.1	57	31.7	0	2	248	0.00	29.818 
09:20	46.2	46.2	46.2	57	31.8	0	2	248	0.00	29.818 
09:25	46.2	46.2	46.2	57	31.8	1	4	248	0.00	29.818 
09:30	46.4	46.4	46.4	56	31.6	1	3	248	0.00	29.815 
09:35	46.5	46.5	46.5	56	31.7	1	4	270	0.00	29.815 
09:40	46.7	46.7	46.7	56	31.8	1	5	292	0.00	29.815 
09:45	46.7	46.7	46.7	56	31.8	1	3	292	0.00	29.813 
09:50	46.7	46.7	46.7	56	31.8	2	7	248	0.00	29.813 
09:55	46.7	46.7	46.7	56	31.8	1	6	248	0.00	29.813 
10:00	46.8	46.8	46.8	57	32.4	0	4	248	0.00	29.803 
10:05	46.8	46.8	46.8	56	31.9	1	4	248	0.00	29.803 
10:10	47.0	47.0	47.0	56	32.1	1	6	248	0.00	29.803 
10:15	47.1	47.1	47.1	56	32.2	1	4	248	0.00	29.805 
10:20	47.3	47.3	47.3	56	32.4	1	3	248	0.00	29.805 
10:25	47.4	47.4	47.4	56	32.5	1	5	248	0.00	29.805 
10:30	47.6	47.6	47.6	56	32.7	1	4	248	0.00	29.815 
10:35	47.7	47.7	47.7	56	32.8	1	3	248	0.00	29.815 
10:40	48.2	48.2	48.2	56	33.2	1	3	248	0.00	29.815 
10:45	48.5	48.5	48.5	55	33.1	1	3	248	0.00	29.818 
10:50	48.9	48.9	48.9	55	33.5	0	4	248	0.00	29.818 
10:55	49.5	49.5	49.5	55	34.0	1	3	248	0.00	29.818 
11:00	49.9	49.9	49.9	54	33.9	1	3	248	0.00	29.813 
11:05	50.7	50.7	50.7	52	33.7	1	6	248	0.00	29.813 
11:10	51.4	51.4	51.4	53	34.8	2	5	248	0.00	29.813 
11:15	52.0	52.0	52.0	50	33.9	2	6	248	0.00	29.805 
11:20	52.3	52.3	52.3	51	34.7	2	6	248	0.00	29.805 
11:25	52.5	52.5	52.5	50	34.4	3	7	248	0.00	29.805 
11:30	52.2	52.2	52.2	50	34.1	2	6	225	0.00	29.806 
11:35	52.0	52.0	52.0	50	33.9	2	7	225	0.00	29.806 
11:40	52.2	52.2	52.2	50	34.1	1	4	248	0.00	29.806 
11:45	52.3	52.3	52.3	51	34.7	0	2	248	0.00	29.811 
11:50	52.3	52.3	52.3	50	34.2	3	7	248	0.00	29.811 
11:55	52.3	52.3	52.3	50	34.2	2	5	248	0.00	29.811 
12:00	52.5	52.5	52.5	51	34.9	1	5	292	0.00	29.800 
12:05	52.8	52.8	52.8	51	35.2	2	6	248	0.00	29.800 
12:10	53.3	53.3	53.3	52	36.1	1	3	270	0.00	29.800 
12:15	54.1	54.1	54.1	51	36.4	1	3	270	0.00	29.800 
12:20	54.5	54.5	54.5	48	35.2	1	4	248	0.00	29.800 
12:25	55.4	55.4	55.4	48	36.0	2	6	248	0.00	29.800 
12:30	56.7	56.7	56.7	46	36.2	2	6	248	0.00	29.791 
12:35	57.8	57.8	57.8	43	35.5	3	6	248	0.00	29.791 
12:40	58.1	58.1	58.1	42	35.1	4	7	248	0.00	29.791 
12:45	58.3	58.3	58.3	41	34.7	5	10	248	0.00	29.790 
12:50	57.8	57.8	57.8	41	34.3	5	12	248	0.00	29.790 
12:55	57.8	57.8	57.8	42	34.9	3	10	248	0.00	29.790 
13:00	58.1	58.1	58.1	42	35.1	2	7	248	0.00	29.772 
13:05	58.6	58.6	58.6	42	35.6	4	9	270	0.00	29.772 
13:10	59.0	59.0	59.0	42	35.9	3	7	248	0.00	29.772 
13:15	59.6	59.6	59.6	40	35.3	4	9	248	0.00	29.780 
13:20	59.9	59.9	59.9	39	34.9	4	11	248	0.00	29.780 
13:25	59.9	59.9	59.9	39	34.9	4	10	248	0.00	29.780 
13:30	60.1	60.1	60.1	39	35.1	3	9	248	0.00	29.776 
13:35	60.2	60.2	60.2	39	35.2	4	8	248	0.00	29.776 
13:40	60.2	60.2	60.2	38	34.5	4	7	248	0.00	29.776 
13:45	60.9	60.9	60.9	38	35.1	4	7	248	0.00	29.763 
13:50	61.5	61.5	61.5	39	36.3	3	9	270	0.00	29.763 
13:55	62.0	62.0	62.0	38	36.1	4	10	270	0.00	29.763 
14:00	62.0	62.0	62.0	36	34.7	5	11	270	0.00	29.766 
14:05	61.6	61.6	61.6	38	35.7	5	11	292	0.00	29.766 
14:10	61.5	61.5	61.5	38	35.7	5	11	270	0.00	29.766 
14:15	61.3	61.3	61.3	37	34.8	4	7	270	0.00	29.771 
14:20	61.0	61.0	61.0	38	35.2	5	10	270	0.00	29.771 
14:25	61.0	61.0	61.0	38	35.2	4	11	270	0.00	29.771 
14:30	61.3	61.3	61.3	39	36.1	4	11	270	0.00	29.773 
14:35	61.8	61.8	61.8	39	36.6	4	10	248	0.00	29.773 
14:40	62.0	62.0	62.0	37	35.4	4	9	248	0.00	29.773 
14:45	61.8	61.8	61.8	38	35.9	4	6	270	0.00	29.763 
14:50	61.8	61.8	61.8	39	36.6	3	7	248	0.00	29.763 
14:55	62.0	62.0	62.0	37	35.4	4	7	270	0.00	29.763 
15:00	62.3	62.3	62.3	37	35.7	4	7	270	0.00	29.768 
15:05	62.9	62.9	62.9	36	35.5	4	9	270	0.00	29.768 
15:10	63.2	63.2	63.2	37	36.5	3	9	270	0.00	29.768 
15:15	63.1	63.1	63.1	35	35.0	5	10	270	0.00	29.775 
15:20	63.2	63.2	63.2	36	35.8	4	9	270	0.00	29.775 
15:25	63.2	63.2	63.2	34	34.4	4	9	248	0.00	29.775 
15:30	63.1	63.1	63.1	34	34.3	3	6	270	0.00	29.765 
15:35	63.1	63.1	63.1	35	35.0	3	7	270	0.00	29.765 
15:40	63.2	63.2	63.2	34	34.4	4	7	270	0.00	29.765 
15:45	63.2	63.2	63.2	35	35.1	3	7	248	0.00	29.771 
15:50	63.4	63.4	63.4	34	34.5	3	7	248	0.00	29.771 
15:55	63.4	63.4	63.4	34	34.5	4	8	270	0.00	29.771 
16:00	63.4	63.4	63.4	35	35.3	3	6	270	0.00	29.768 
16:05	63.5	63.5	63.5	35	35.4	2	6	315	0.00	29.768 
16:10	63.5	63.5	63.5	34	34.6	3	6	270	0.00	29.768 
16:15	63.4	63.4	63.4	34	34.5	3	7	270	0.00	29.765 
16:20	63.5	63.5	63.5	36	36.1	1	4	270	0.00	29.765 
16:25	63.9	63.9	63.9	35	35.7	2	5	338	0.00	29.765 
16:30	64.0	64.0	64.0	34	35.1	2	6	338	0.00	29.747 
16:35	63.9	63.9	63.9	34	35.0	2	6	315	0.00	29.747 
16:40	64.2	64.2	64.2	35	36.0	2	4	292	0.00	29.747 
16:45	64.2	64.2	64.2	35	36.0	1	3	270	0.00	29.750 
16:50	64.0	64.0	64.0	33	34.3	2	4	315	0.00	29.750 
16:55	64.0	64.0	64.0	34	35.1	1	4	315	0.00	29.750 
17:00	63.9	63.9	63.9	34	35.0	2	4	315	0.00	29.749 
17:05	63.9	63.9	63.9	35	35.7	1	5	338	0.00	29.749 
17:10	63.5	63.5	63.5	35	35.4	1	4	338	0.00	29.749 
17:15	63.2	63.2	63.2	35	35.1	2	6	292	0.00	29.757 
17:20	62.9	62.9	62.9	36	35.5	1	4	248	0.00	29.757 
17:25	62.7	62.7	62.7	36	35.4	1	5	248	0.00	29.757 
17:30	62.7	62.7	62.7	38	36.7	2	5	270	0.00	29.757 
17:35	62.6	62.6	62.6	38	36.6	1	4	315	0.00	29.757 
17:40	62.6	62.6	62.6	38	36.6	1	4	315	0.00	29.757 
17:45	62.6	62.6	62.6	41	38.6	1	2	315	0.00	29.765 
17:50	62.4	62.4	62.4	39	37.1	1	5	0	0.00	29.765 
17:55	62.1	62.1	62.1	39	36.8	1	4	338	0.00	29.765 
18:00	61.6	61.6	61.6	39	36.4	1	4	338	0.00	29.780 
18:05	61.2	61.2	61.2	40	36.7	1	4	338	0.00	29.780 
18:10	60.9	60.9	60.9	40	36.4	1	3	292	0.00	29.780 
18:15	60.9	60.9	60.9	41	37.0	1	2	292	0.00	29.792 
18:20	60.5	60.5	60.5	41	36.7	1	4	338	0.00	29.792 
18:25	60.4	60.4	60.4	41	36.6	0	2	338	0.00	29.792 
18:30	60.2	60.2	60.2	41	36.4	0	4	22	0.00	29.797 
18:35	59.9	59.9	59.9	42	36.8	0	3	22	0.00	29.797 
18:40	59.8	59.8	59.8	43	37.3	0	2	22	0.00	29.797 
18:45	59.6	59.6	59.6	43	37.1	0	1	22	0.00	29.801 
18:50	59.6	59.6	59.6	47	39.3	1	6	22	0.00	29.801 
18:55	58.4	58.4	58.4	54	41.8	2	6	90	0.00	29.801 
19:00	57.0	57.0	57.0	58	42.4	2	5	112	0.00	29.815 
19:05	55.7	55.7	55.7	59	41.6	3	10	112	0.00	29.815 
19:10	54.8	54.8	54.8	61	41.6	3	11	112	0.00	29.815 
19:15	54.2	54.2	54.2	63	41.9	2	5	112	0.00	29.828 
19:20	53.5	53.5	53.5	65	42.0	4	9	90	0.00	29.828 
19:25	52.9	52.9	52.9	66	41.9	3	6	90	0.00	29.828 
19:30	52.5	52.5	52.5	66	41.5	2	7	90	0.00	29.833 
19:35	52.0	52.0	52.0	66	41.0	4	9	112	0.00	29.833 
19:40	51.6	51.6	51.6	66	40.6	4	7	90	0.00	29.833 
19:45	51.1	51.1	51.1	67	40.5	3	9	90	0.00	29.836 
19:50	50.8	50.8	50.8	67	40.2	2	6	90	0.00	29.836 
19:55	50.5	50.5	50.5	68	40.3	5	11	90	0.00	29.836 
20:00	50.4	50.4	50.4	68	40.2	4	11	90	0.00	29.847 
20:05	50.2	50.2	50.2	69	40.4	3	11	112	0.00	29.847 
20:10	50.1	50.1	50.1	70	40.7	3	9	112	0.00	29.847 
20:15	49.8	49.8	49.8	71	40.8	3	9	112	0.00	29.853 
20:20	49.6	48.4	49.6	72	40.9	4	10	90	0.00	29.853 
20:25	49.4	48.2	49.4	73	41.1	4	11	90	0.00	29.853 
20:30	49.1	47.8	49.1	73	40.8	4	12	112	0.00	29.865 
20:35	48.9	48.9	48.9	74	41.0	3	11	90	0.00	29.865 
20:40	48.8	48.8	48.8	75	41.2	3	10	90	0.00	29.865 
20:45	48.5	48.5	48.5	76	41.3	3	9	90	0.00	29.871 
20:50	48.3	48.3	48.3	76	41.1	1	6	90	0.00	29.871 
20:55	48.2	48.2	48.2	76	41.0	3	7	90	0.00	29.871 
21:00	48.0	46.6	48.0	77	41.1	4	10	90	0.00	29.879 
21:05	47.9	47.9	47.9	77	41.0	3	7	90	0.00	29.879 
21:10	47.7	47.7	47.7	77	40.8	2	6	112	0.00	29.879 
21:15	47.6	47.6	47.6	78	41.1	3	9	90	0.00	29.883 
21:20	47.4	47.4	47.4	78	40.9	2	7	112	0.00	29.883 
21:25	47.3	47.3	47.3	78	40.8	2	9	90	0.00	29.883 
21:30	47.1	47.1	47.1	79	40.9	3	7	112	0.00	29.886 
21:35	46.8	46.8	46.8	79	40.6	3	6	112	0.00	29.886 
21:40	46.8	46.8	46.8	80	41.0	2	5	90	0.00	29.886 
21:45	46.7	46.7	46.7	80	40.9	3	7	90	0.00	29.891 
21:50	46.5	46.5	46.5	80	40.7	3	6	90	0.00	29.891 
21:55	46.4	46.4	46.4	80	40.6	2	7	90	0.00	29.891 
22:00	46.2	46.2	46.2	80	40.4	2	4	90	0.00	29.901 
22:05	46.2	46.2	46.2	81	40.7	2	5	90	0.00	29.901 
22:10	46.1	46.1	46.1	81	40.6	1	5	112	0.00	29.901 
22:15	46.0	46.0	46.0	81	40.5	1	3	135	0.00	29.903 
22:20	45.8	45.8	45.8	81	40.3	3	7	112	0.00	29.903 
22:25	45.7	45.7	45.7	81	40.2	3	6	90	0.00	29.903 
22:30	45.7	45.7	45.7	81	40.2	2	5	90	0.00	29.911 
22:35	45.5	45.5	45.5	81	40.0	1	4	90	0.00	29.911 
22:40	45.4	45.4	45.4	82	40.2	2	5	90	0.00	29.911 
22:45	45.2	45.2	45.2	82	40.0	1	4	90	0.00	29.917 
22:50	45.1	45.1	45.1	82	39.9	1	3	90	0.00	29.917 
22:55	44.9	44.9	44.9	83	40.1	2	6	90	0.00	29.917 
23:00	44.9	44.9	44.9	84	40.4	2	6	90	0.00	29.917 
23:05	44.9	44.9	44.9	84	40.4	2	4	68	0.00	29.917 
23:10	44.9	44.9	44.9	84	40.4	2	5	90	0.00	29.917 
23:15	44.8	44.8	44.8	84	40.3	3	5	112	0.00	29.920 
23:20	44.8	44.8	44.8	84	40.3	2	6	112	0.00	29.920 
23:25	44.6	44.6	44.6	84	40.1	3	5	90	0.00	29.920 
23:30	44.6	42.6	44.6	84	40.1	4	6	90	0.00	29.927 
23:35	44.5	42.5	44.5	83	39.7	4	7	90	0.00	29.927 
23:40	44.5	41.8	44.5	82	39.4	5	9	90	0.00	29.927 
23:45	44.5	42.5	44.5	82	39.4	4	9	90	0.00	29.931 
23:50	44.3	44.3	44.3	82	39.2	3	9	90	0.00	29.931 
23:55	44.3	44.3	44.3	83	39.5	2	4	112	0.00	29.931 

CoCoRaHS
IN-AL-39
A2 Web Hosting
Creative Commons License
GoDaddy
search engine by freefind advanced

loaded 2018-11-17 13:01:15 • last modified 2010-11-18 10:43:29
Privacy PolicyDisclaimer
• wx.awcolley.com is powered by PmWiki v.2002016 •
• all content (unless otherwise noted) © 2018 A W Colley